createdAt,value
2023-05-14T00:01:05.473Z,82.80
2023-05-14T00:04:07.957Z,82.20
2023-05-14T00:07:10.364Z,82.27
2023-05-14T00:10:12.641Z,81.78
2023-05-14T00:13:14.922Z,81.08
2023-05-14T00:16:17.210Z,81.74
2023-05-14T00:19:19.465Z,81.34
2023-05-14T00:22:21.762Z,80.70
2023-05-14T00:25:24.153Z,81.27
2023-05-14T00:28:26.447Z,80.42
2023-05-14T00:31:28.729Z,80.64
2023-05-14T00:34:31.393Z,80.95
2023-05-14T00:37:33.813Z,80.67
2023-05-14T00:40:36.275Z,80.80
2023-05-14T00:43:38.691Z,80.65
2023-05-14T00:46:41.159Z,80.05
2023-05-14T00:49:43.814Z,80.36
2023-05-14T00:52:47.024Z,79.98
2023-05-14T00:55:50.388Z,80.57
2023-05-14T00:58:52.599Z,79.85
2023-05-14T01:01:54.952Z,80.23
2023-05-14T01:04:57.726Z,80.18
2023-05-14T01:08:41.909Z,79.85
2023-05-14T01:11:56.542Z,80.24
2023-05-14T01:15:15.375Z,80.39
2023-05-14T01:18:19.729Z,80.37
2023-05-14T01:21:40.942Z,79.64
2023-05-14T01:24:43.383Z,79.74
2023-05-14T01:28:00.732Z,80.45
2023-05-14T01:31:32.272Z,80.70
2023-05-14T01:34:36.399Z,80.67
2023-05-14T01:37:41.404Z,81.06
2023-05-14T01:40:46.746Z,81.17
2023-05-14T01:43:49.482Z,80.61
2023-05-14T01:46:51.823Z,81.49
2023-05-14T01:49:54.123Z,81.53
2023-05-14T01:52:59.214Z,82.00
2023-05-14T01:56:02.951Z,81.84
2023-05-14T01:59:05.315Z,80.84
2023-05-14T02:02:08.017Z,80.92
2023-05-14T02:05:11.900Z,81.61
2023-05-14T02:08:14.117Z,81.47
2023-05-14T02:11:16.389Z,82.13
2023-05-14T02:14:18.645Z,81.35
2023-05-14T02:17:21.175Z,81.06
2023-05-14T02:20:23.576Z,81.74
2023-05-14T02:23:37.897Z,81.43
2023-05-14T02:26:43.663Z,81.40
2023-05-14T02:29:45.939Z,80.99
2023-05-14T02:32:48.351Z,80.69
2023-05-14T02:35:50.587Z,80.62
2023-05-14T02:38:53.358Z,79.85
2023-05-14T02:41:57.474Z,80.46
2023-05-14T02:44:59.840Z,79.56
2023-05-14T02:48:02.348Z,79.86
2023-05-14T02:51:05.761Z,79.83
2023-05-14T02:54:08.207Z,79.02
2023-05-14T02:57:10.524Z,79.49
2023-05-14T03:00:13.316Z,79.67
2023-05-14T03:03:15.985Z,79.24
2023-05-14T03:06:18.634Z,79.03
2023-05-14T03:09:20.932Z,78.93
2023-05-14T03:12:23.371Z,78.94
2023-05-14T03:15:25.822Z,78.35
2023-05-14T03:18:30.650Z,78.36
2023-05-14T03:21:33.233Z,78.37
2023-05-14T03:24:41.057Z,78.62
2023-05-14T03:27:43.339Z,78.33
2023-05-14T03:30:45.652Z,78.49
2023-05-14T03:33:47.953Z,78.91
2023-05-14T03:36:50.687Z,77.52
2023-05-14T03:39:52.911Z,76.91
2023-05-14T03:42:56.069Z,77.22
2023-05-14T03:45:58.987Z,77.51
2023-05-14T03:49:01.602Z,76.57
2023-05-14T03:52:04.260Z,76.84
2023-05-14T03:55:07.051Z,77.44
2023-05-14T03:58:14.336Z,77.70
2023-05-14T04:01:16.944Z,77.38
2023-05-14T04:04:19.252Z,77.54
2023-05-14T04:07:21.586Z,77.75
2023-05-14T04:10:23.993Z,76.57
2023-05-14T04:13:26.464Z,77.22
2023-05-14T04:16:29.846Z,76.90
2023-05-14T04:19:32.128Z,77.76
2023-05-14T04:22:34.372Z,77.88
2023-05-14T04:25:36.617Z,78.13
2023-05-14T04:28:38.851Z,78.45
2023-05-14T04:31:42.210Z,77.41
2023-05-14T04:34:44.685Z,77.78
2023-05-14T04:37:47.146Z,77.68
2023-05-14T04:40:49.359Z,77.71
2023-05-14T04:43:51.718Z,76.78
2023-05-14T04:46:54.040Z,75.32
2023-05-14T04:49:56.272Z,75.97
2023-05-14T04:52:58.615Z,75.74
2023-05-14T04:56:00.891Z,74.88
2023-05-14T04:59:03.127Z,75.80
2023-05-14T05:02:05.393Z,75.12
2023-05-14T05:05:08.761Z,74.38
2023-05-14T05:08:11.548Z,74.11
2023-05-14T05:11:13.930Z,73.94
2023-05-14T05:14:16.338Z,73.94
2023-05-14T05:17:18.611Z,73.28
2023-05-14T05:20:20.997Z,73.45
2023-05-14T05:23:23.329Z,74.25
2023-05-14T05:26:27.240Z,73.39
2023-05-14T05:29:29.532Z,73.00
2023-05-14T05:32:31.933Z,72.93
2023-05-14T05:35:36.744Z,72.67
2023-05-14T05:38:39.006Z,73.63
2023-05-14T05:41:41.288Z,74.48
2023-05-14T05:44:43.513Z,72.47
2023-05-14T05:47:45.903Z,72.71
2023-05-14T05:50:49.521Z,73.53
2023-05-14T05:53:51.791Z,72.27
2023-05-14T05:56:54.059Z,73.29
2023-05-14T05:59:56.369Z,73.07
2023-05-14T06:02:59.330Z,72.28
2023-05-14T06:06:01.593Z,71.88
2023-05-14T06:09:04.765Z,72.35
2023-05-14T06:12:07.474Z,70.88
2023-05-14T06:15:10.080Z,71.42
2023-05-14T06:18:12.394Z,70.19
2023-05-14T06:21:14.633Z,71.86
2023-05-14T06:24:20.431Z,72.27
2023-05-14T06:27:22.955Z,70.93
2023-05-14T06:30:25.460Z,71.79
2023-05-14T06:33:31.353Z,72.44
2023-05-14T06:36:33.731Z,72.08
2023-05-14T06:39:39.237Z,71.93
2023-05-14T06:42:42.317Z,72.51
2023-05-14T06:45:52.151Z,72.45
2023-05-14T06:48:55.667Z,74.83
2023-05-14T06:51:59.041Z,74.20
2023-05-14T06:55:01.320Z,76.28
2023-05-14T06:58:04.133Z,75.75
2023-05-14T07:01:06.622Z,75.05
2023-05-14T07:04:08.972Z,74.33
2023-05-14T07:07:15.365Z,75.38
2023-05-14T07:10:17.795Z,75.07
2023-05-14T07:13:20.131Z,73.53
2023-05-14T07:16:22.477Z,73.61
2023-05-14T07:19:24.729Z,74.10
2023-05-14T13:14:12.781Z,91.65
2023-05-14T13:17:15.328Z,92.21
2023-05-14T13:20:18.439Z,92.46
2023-05-14T13:23:20.845Z,91.80
2023-05-14T13:26:26.560Z,92.57
2023-05-14T13:29:31.741Z,91.93
2023-05-14T13:32:34.094Z,92.68
2023-05-14T13:35:36.462Z,93.19
2023-05-14T13:38:39.347Z,93.84
2023-05-14T13:41:41.906Z,93.16
2023-05-14T13:44:44.188Z,93.89
2023-05-14T13:47:46.533Z,92.79
2023-05-14T13:50:50.121Z,94.12
2023-05-14T13:56:56.848Z,94.46
2023-05-14T13:59:59.151Z,94.84
2023-05-14T14:03:01.474Z,94.66
2023-05-14T14:06:03.838Z,94.74
2023-05-14T14:09:06.164Z,95.03
2023-05-14T14:12:09.112Z,95.28
2023-05-14T14:15:11.724Z,95.76
2023-05-14T14:18:14.017Z,95.49
2023-05-14T14:21:18.405Z,94.71
2023-05-14T14:24:20.836Z,93.47
2023-05-14T14:27:23.086Z,93.23
2023-05-14T14:30:25.436Z,94.10
2023-05-14T14:33:27.730Z,95.00
2023-05-14T14:36:32.290Z,94.94
2023-05-14T14:39:34.588Z,95.96
2023-05-14T14:42:37.807Z,96.53
2023-05-14T14:45:40.215Z,96.35
2023-05-14T14:48:42.569Z,96.62
2023-05-14T14:51:45.022Z,96.97
2023-05-14T14:54:47.333Z,97.36
2023-05-14T14:57:49.583Z,96.74
2023-05-14T15:00:55.567Z,96.39
2023-05-14T15:03:57.890Z,97.02
2023-05-14T15:07:00.849Z,96.43
2023-05-14T15:10:03.233Z,97.13
2023-05-14T15:13:07.459Z,96.72
2023-05-14T15:16:09.874Z,96.83
2023-05-14T15:19:12.247Z,97.39
2023-05-14T15:22:14.753Z,96.42
2023-05-14T15:25:17.041Z,96.41
2023-05-14T15:28:19.307Z,96.46
2023-05-14T15:31:21.730Z,97.32
2023-05-14T15:34:24.214Z,96.49
2023-05-14T15:37:26.893Z,96.08
2023-05-14T15:40:29.610Z,96.45
2023-05-14T15:43:31.960Z,98.05
2023-05-14T15:46:34.544Z,97.02
2023-05-14T15:49:36.840Z,98.09
2023-05-14T15:52:40.664Z,97.57
2023-05-14T15:55:43.191Z,97.85
2023-05-14T15:58:45.511Z,97.94
2023-05-14T16:01:48.023Z,98.27
2023-05-14T16:04:50.347Z,98.26
2023-05-14T16:07:52.678Z,98.70
2023-05-14T16:10:54.912Z,98.99
2023-05-14T16:13:58.476Z,98.78
2023-05-14T16:17:01.872Z,98.03
2023-05-14T16:20:05.057Z,98.20
2023-05-14T16:23:07.402Z,97.72
2023-05-14T16:26:09.736Z,97.73
2023-05-14T16:29:12.371Z,96.87
2023-05-14T16:32:14.694Z,97.14
2023-05-14T16:35:17.119Z,97.28
2023-05-14T16:38:19.338Z,97.63
2023-05-14T16:41:24.172Z,97.56
2023-05-14T16:44:26.450Z,98.43
2023-05-14T16:47:28.713Z,98.39
2023-05-14T16:50:30.997Z,98.76
2023-05-14T16:53:33.265Z,98.36
2023-05-14T16:56:36.660Z,98.28
2023-05-14T16:59:38.932Z,98.21
2023-05-14T17:02:41.712Z,97.42
2023-05-14T17:05:44.249Z,97.23
2023-05-14T17:08:46.595Z,97.22
2023-05-14T17:11:48.830Z,97.92
2023-05-14T17:14:51.294Z,97.79
2023-05-14T17:17:54.268Z,98.23
2023-05-14T17:20:56.621Z,98.06
2023-05-14T17:23:58.984Z,98.94
2023-05-14T17:27:01.252Z,98.69
2023-05-14T17:30:04.076Z,98.21
2023-05-14T17:33:06.444Z,98.35
2023-05-14T17:36:08.809Z,98.75
2023-05-14T17:39:11.136Z,98.58
2023-05-14T17:42:13.391Z,98.65
2023-05-14T17:45:23.825Z,99.33
2023-05-14T17:48:26.409Z,99.65
2023-05-14T17:51:28.846Z,99.90
2023-05-14T17:54:31.162Z,100.00
2023-05-14T17:57:35.336Z,100.00
2023-05-14T18:00:37.730Z,100.00
2023-05-14T18:03:40.158Z,100.00
2023-05-14T18:06:44.125Z,100.00
2023-05-14T18:09:46.670Z,100.00
2023-05-14T18:12:48.962Z,100.00
2023-05-14T18:15:54.212Z,100.00
2023-05-14T18:18:56.754Z,100.00
2023-05-14T18:21:59.060Z,100.00
2023-05-14T18:25:02.602Z,100.00
2023-05-14T18:28:05.557Z,100.00
2023-05-14T18:31:07.933Z,100.00
2023-05-14T18:34:10.450Z,100.00
2023-05-14T18:37:12.828Z,100.00
2023-05-14T18:40:17.698Z,99.68
2023-05-14T18:43:20.909Z,100.00
2023-05-14T18:46:23.878Z,99.69
2023-05-14T18:49:26.311Z,98.80
2023-05-14T18:52:29.121Z,98.61
2023-05-14T18:55:31.455Z,99.26
2023-05-14T18:58:33.743Z,99.42
2023-05-14T19:01:36.401Z,100.00
2023-05-14T19:04:51.236Z,100.00
2023-05-14T19:07:55.054Z,100.00
2023-05-14T19:10:57.415Z,100.00
2023-05-14T19:14:00.141Z,100.00
2023-05-14T19:17:02.836Z,100.00
2023-05-14T19:20:06.417Z,100.00
2023-05-14T19:23:08.716Z,100.00
2023-05-14T19:26:11.108Z,99.95
2023-05-14T19:29:13.594Z,99.90
2023-05-14T19:32:15.848Z,100.00
2023-05-14T19:35:18.096Z,100.00
2023-05-14T19:38:20.973Z,100.00
2023-05-14T19:41:23.264Z,100.00
2023-05-14T19:44:25.795Z,100.00
2023-05-14T19:47:28.844Z,100.00
2023-05-14T19:50:31.139Z,100.00
2023-05-14T19:53:33.503Z,100.00
2023-05-14T19:56:35.956Z,100.00
2023-05-14T19:59:39.308Z,100.00
2023-05-14T20:02:42.072Z,100.00
2023-05-14T20:05:45.329Z,100.00
2023-05-14T20:08:47.794Z,100.00
2023-05-14T20:11:50.189Z,100.00
2023-05-14T20:14:52.451Z,100.00
2023-05-14T20:17:55.023Z,100.00
2023-05-14T20:20:57.305Z,100.00
2023-05-14T20:23:59.639Z,100.00
2023-05-14T20:27:02.067Z,100.00
2023-05-14T20:30:05.027Z,100.00
2023-05-14T20:33:07.480Z,100.00
2023-05-14T20:36:10.030Z,100.00
2023-05-14T20:39:12.245Z,100.00
2023-05-14T20:42:14.541Z,100.00
2023-05-14T20:45:17.117Z,100.00
2023-05-14T20:48:21.425Z,100.00
2023-05-14T20:51:23.785Z,100.00
2023-05-14T20:54:26.184Z,100.00
2023-05-14T20:57:28.479Z,100.00
2023-05-14T21:00:30.816Z,100.00
2023-05-14T21:03:33.276Z,100.00
2023-05-14T21:06:35.833Z,100.00
2023-05-14T21:09:38.102Z,100.00
2023-05-14T21:12:42.075Z,100.00
2023-05-14T21:15:45.125Z,100.00
2023-05-14T21:18:47.464Z,100.00
2023-05-14T21:21:49.820Z,100.00
2023-05-14T21:24:52.080Z,100.00
2023-05-14T21:27:54.408Z,100.00
2023-05-14T21:30:56.839Z,100.00
2023-05-14T21:33:59.057Z,100.00
2023-05-14T21:37:01.448Z,100.00
2023-05-14T21:40:03.802Z,100.00
2023-05-14T21:43:06.332Z,100.00
2023-05-14T21:46:08.733Z,100.00
2023-05-14T21:49:11.020Z,100.00
2023-05-14T21:52:13.343Z,100.00
2023-05-14T21:55:15.817Z,100.00
2023-05-14T21:58:18.113Z,100.00
2023-05-14T22:01:20.387Z,100.00
2023-05-14T22:04:22.723Z,100.00
2023-05-14T22:07:25.161Z,100.00
2023-05-14T22:10:27.462Z,100.00
2023-05-14T22:13:29.993Z,100.00
2023-05-14T22:16:33.083Z,100.00
2023-05-14T22:19:35.455Z,100.00
2023-05-14T22:22:38.094Z,100.00
2023-05-14T22:25:40.380Z,100.00
2023-05-14T22:28:43.706Z,100.00
2023-05-14T22:31:46.111Z,100.00
2023-05-14T22:34:48.421Z,100.00
2023-05-14T22:37:50.744Z,99.82
2023-05-14T22:40:53.042Z,100.00
2023-05-14T22:43:55.454Z,100.00
2023-05-14T22:46:58.121Z,100.00
2023-05-14T22:50:00.469Z,100.00
2023-05-14T22:53:02.739Z,100.00
2023-05-14T22:56:05.672Z,100.00
2023-05-14T22:59:08.033Z,100.00
2023-05-14T23:02:10.461Z,100.00
2023-05-14T23:05:12.872Z,100.00
2023-05-14T23:08:15.326Z,100.00
2023-05-14T23:11:17.647Z,100.00
2023-05-14T23:14:20.012Z,100.00
2023-05-14T23:17:25.474Z,100.00
2023-05-14T23:20:27.765Z,100.00
2023-05-14T23:23:30.104Z,100.00
2023-05-14T23:26:32.744Z,100.00
2023-05-14T23:29:35.062Z,100.00
2023-05-14T23:32:37.338Z,100.00
2023-05-14T23:35:40.733Z,100.00
2023-05-14T23:38:43.219Z,100.00
2023-05-14T23:41:45.510Z,100.00
2023-05-14T23:44:48.134Z,100.00
2023-05-14T23:47:50.647Z,100.00
2023-05-14T23:50:52.995Z,100.00
2023-05-14T23:54:01.144Z,100.00
2023-05-14T23:57:04.048Z,100.00
